Saturday, February 24, 2018, 2:07 AM CST
Back to Local

KOMA, Omaha Eppley Airfield

Location: Omaha, NE, United States Lat: 41.3
Local Time: 2:07 AM CST ( 8:07 GMT) Lon: -95.9
Time Zone: US/Central Elev: 984 ft

Show me the last for .
Show Decoded

2018-02-24 01:52 METAR KOMA 240752Z 03007KT 8SM OVC007 M06/M07 A3018 RMK AO2 SLP232 T10561072 =
2018-02-24 00:52 METAR KOMA 240652Z 07005KT 8SM OVC007 M06/M07 A3023 RMK AO2 SLP252 T10561072 =
2018-02-23 23:52 METAR KOMA 240552Z 04009KT 9SM OVC008 M06/M07 A3025 RMK AO2 SLP256 T10561072
                 11033 21056 400001056 58013 =
2018-02-23 22:52 METAR KOMA 240452Z 04008KT 9SM OVC008 M06/M07 A3028 RMK AO2 SLP266 T10561072 =
2018-02-23 21:52 METAR KOMA 240352Z 05009KT 9SM OVC009 M06/M07 A3029 RMK AO2 SLP270 T10561072 =
2018-02-23 21:34 METAR KOMA 240334Z 05007KT 6SM BR OVC009 M05/M07 A3029 RMK AO2 T10501072 =
2018-02-23 20:52 METAR KOMA 240252Z 06008KT 5SM BR OVC010 M04/M07 A3029 RMK AO2 SLP270 T10441067
                 51005 =
2018-02-23 19:52 METAR KOMA 240152Z 04009KT 5SM BR OVC011 M04/M07 A3028 RMK AO2 SLP269 T10441067
                 =
2018-02-23 18:52 METAR KOMA 240052Z 36006KT 9SM OVC013 M04/M06 A3029 RMK AO2 SLP269 T10391061 =
2018-02-23 17:52 METAR KOMA 232352Z 36014KT 10SM BKN012 BKN250 M04/M07 A3027 RMK AO2 SLP265 4/001
                 T10391067 11011 21039 58012 =
2018-02-23 17:06 METAR KOMA 232306Z 01012KT 10SM BKN012 M03/M06 A3029 RMK AO2 T10281056 =
2018-02-23 16:52 METAR KOMA 232252Z 35011KT 10SM SCT015 SCT250 M03/M06 A3029 RMK AO2 SLP269
                 T10281056 =
2018-02-23 15:52 METAR KOMA 232152Z 01011KT 8SM SCT015 SCT250 M02/M06 A3030 RMK AO2 SLP271
                 T10221056 =
2018-02-23 14:52 METAR KOMA 232052Z 36008KT 8SM SCT013 M01/M05 A3031 RMK AO2 SLP274 T10111050
                 55009 =
2018-02-23 13:52 METAR KOMA 231952Z 36010KT 7SM SCT013 M02/M06 A3030 RMK AO2 SLP274 T10221056 =
2018-02-23 12:52 METAR KOMA 231852Z 36011KT 7SM BKN014 M03/M06 A3033 RMK AO2 SLP282 T10281056 =
2018-02-23 12:18 METAR KOMA 231818Z 36009KT 7SM BKN014 M02/M06 A3034 RMK AO2 T10221056 =
2018-02-23 12:03 METAR KOMA 231803Z 36008KT 7SM BKN015 M02/M05 A3033 RMK AO2 T10221050 =
2018-02-23 11:52 METAR KOMA 231752Z 36006KT 7SM SCT015 M02/M05 A3034 RMK AO2 SLP284 4/001
                 T10171050 11017 21044 51024 =
2018-02-23 10:52 METAR KOMA 231652Z 01007KT 7SM FEW012 M03/M06 A3033 RMK AO2 SLP281 T10281061 =
2018-02-23 09:52 METAR KOMA 231552Z 36008KT 6SM HZ FEW010 FEW250 M03/M06 A3029 RMK AO2 SLP270
                 T10331061 =
2018-02-23 08:52 METAR KOMA 231452Z 35005KT 5SM BR SCT250 M04/M07 A3026 RMK AO2 SLP260 T10441067
                 53017 =
2018-02-23 07:52 METAR KOMA 231352Z 30010KT 6SM BR FEW250 M04/M06 A3024 RMK AO2 SLP250 T10441061
                 =
2018-02-23 06:52 METAR KOMA 231252Z 30010KT 5SM BR FEW033 M04/M06 A3022 RMK AO2 SLP244 T10441061
                 =
2018-02-23 05:52 METAR KOMA 231152Z 29010KT 6SM BR FEW033 M04/M06 A3021 RMK AO2 SLP242 4/001
                 70024 T10391056 10000 21039 53010 =
2018-02-23 04:52 METAR KOMA 231052Z 28009KT 5SM BR FEW033 M03/M04 A3019 RMK AO2 SLP235 T10281044
                 =
2018-02-23 03:52 METAR KOMA 230952Z 29008KT 8SM OVC033 M02/M04 A3019 RMK AO2 SLP233 T10171039 =
2018-02-23 02:52 METAR KOMA 230852Z 27009KT 10SM OVC032 M01/M03 A3018 RMK AO2 SLP231 T10111033
                 53002 =
2018-02-23 02:17 METAR KOMA 230817Z 29005KT 10SM SCT020 OVC032 M01/M03 A3018 RMK AO2 T10111033 =

Support USWX by starting your Amazon purchase here.